Time,TemperatureF,DewpointF,PressureIn,WindDirection,WindDirectionDegrees,WindSpeedMPH,WindSpeedGustMPH,Humidity,HourlyPrecipIn,Conditions,Clouds,dailyrainin,SoftwareType,DateUTC
2013-08-10 00:07:00,74.1,73.5,29.78,SE,135,0.0,-999.0,98,-99.99,,,0.00,Acu-Link.com,2013-08-10 05:07:00,
2013-08-10 00:22:00,74.1,73.5,29.78,SE,135,0.0,-999.0,98,-99.99,,,0.00,Acu-Link.com,2013-08-10 05:22:00,
2013-08-10 00:37:00,74.1,73.5,29.78,SE,135,0.0,-999.0,98,-99.99,,,0.00,Acu-Link.com,2013-08-10 05:37:00,
2013-08-10 00:52:00,74.1,73.5,29.77,SE,135,0.0,-999.0,98,-99.99,,,0.00,Acu-Link.com,2013-08-10 05:52:00,
2013-08-10 01:07:00,74.1,73.5,29.77,East,90,0.0,-999.0,98,-99.99,,,0.00,Acu-Link.com,2013-08-10 06:07:00,
2013-08-10 01:22:00,73.8,73.2,29.77,East,90,0.0,-999.0,98,-99.99,,,0.00,Acu-Link.com,2013-08-10 06:22:00,
2013-08-10 01:37:00,73.8,73.2,29.77,East,90,0.0,-999.0,98,-99.99,,,0.00,Acu-Link.com,2013-08-10 06:37:00,
2013-08-10 01:53:00,73.6,73.0,29.77,WNW,292,0.0,-999.0,98,-99.99,,,0.00,Acu-Link.com,2013-08-10 06:53:00,
2013-08-10 02:08:00,73.6,73.0,29.77,SW,225,0.0,-999.0,98,-99.99,,,0.00,Acu-Link.com,2013-08-10 07:08:00,
2013-08-10 02:23:00,73.2,72.6,29.77,ENE,67,0.0,-999.0,98,-99.99,,,0.00,Acu-Link.com,2013-08-10 07:23:00,
2013-08-10 02:38:00,73.2,72.6,29.77,ENE,67,0.0,-999.0,98,-99.99,,,0.00,Acu-Link.com,2013-08-10 07:38:00,
2013-08-10 02:53:00,73.2,72.6,29.78,ESE,112,0.0,-999.0,98,-99.99,,,0.00,Acu-Link.com,2013-08-10 07:53:00,
2013-08-10 03:09:00,73.2,72.6,29.78,ENE,67,0.0,-999.0,98,-99.99,,,0.00,Acu-Link.com,2013-08-10 08:09:00,
2013-08-10 03:25:00,73.0,72.4,29.78,NE,45,0.0,-999.0,98,-99.99,,,0.00,Acu-Link.com,2013-08-10 08:25:00,
2013-08-10 03:40:00,73.2,72.6,29.78,NW,315,0.0,-999.0,98,-99.99,,,0.00,Acu-Link.com,2013-08-10 08:40:00,
2013-08-10 03:55:00,72.5,71.9,29.78,SE,135,0.0,-999.0,98,-99.99,,,0.00,Acu-Link.com,2013-08-10 08:55:00,
2013-08-10 04:10:00,72.3,71.7,29.79,West,270,0.0,-999.0,98,-99.99,,,0.00,Acu-Link.com,2013-08-10 09:10:00,
2013-08-10 04:25:00,72.0,71.4,29.78,ESE,112,0.0,-999.0,98,-99.99,,,0.00,Acu-Link.com,2013-08-10 09:25:00,
2013-08-10 04:41:00,72.1,71.5,29.78,SSE,157,1.7,-999.0,98,-99.99,,,0.00,Acu-Link.com,2013-08-10 09:41:00,
2013-08-10 04:56:00,72.1,71.5,29.78,NNE,22,1.1,-999.0,98,-99.99,,,0.00,Acu-Link.com,2013-08-10 09:56:00,
2013-08-10 05:11:00,72.0,71.4,29.79,West,270,0.0,-999.0,98,-99.99,,,0.00,Acu-Link.com,2013-08-10 10:11:00,
2013-08-10 05:26:00,71.4,70.8,29.79,West,270,0.0,-999.0,98,-99.99,,,0.00,Acu-Link.com,2013-08-10 10:26:00,
2013-08-10 05:41:00,71.4,70.8,29.79,SSE,157,0.0,-999.0,98,-99.99,,,0.00,Acu-Link.com,2013-08-10 10:41:00,
2013-08-10 05:56:00,71.2,70.6,29.80,ESE,112,0.0,-999.0,98,-99.99,,,0.00,Acu-Link.com,2013-08-10 10:56:00,
2013-08-10 06:12:00,71.4,70.8,29.80,SSE,157,0.0,-999.0,98,-99.99,,,0.00,Acu-Link.com,2013-08-10 11:12:00,
2013-08-10 06:27:00,71.6,71.0,29.80,North,0,0.0,-999.0,98,-99.99,,,0.00,Acu-Link.com,2013-08-10 11:27:00,
2013-08-10 06:42:00,72.5,71.9,29.81,SSE,157,1.1,-999.0,98,-99.99,,,0.00,Acu-Link.com,2013-08-10 11:42:00,
2013-08-10 06:57:00,74.1,73.5,29.81,SSW,202,0.0,-999.0,98,-99.99,,,0.00,Acu-Link.com,2013-08-10 11:57:00,
2013-08-10 07:12:00,76.5,75.9,29.82,ESE,112,0.0,-999.0,98,-99.99,,,0.00,Acu-Link.com,2013-08-10 12:12:00,
2013-08-10 07:27:00,77.4,76.8,29.82,ESE,112,0.0,-999.0,98,-99.99,,,0.00,Acu-Link.com,2013-08-10 12:27:00,
2013-08-10 07:42:00,78.4,77.8,29.82,NNE,22,0.0,-999.0,98,-99.99,,,0.00,Acu-Link.com,2013-08-10 12:42:00,
2013-08-10 07:57:00,81.9,81.3,29.82,NNE,22,0.0,-999.0,98,-99.99,,,0.00,Acu-Link.com,2013-08-10 12:57:00,
2013-08-10 08:12:00,85.8,85.2,29.82,North,0,1.1,-999.0,98,-99.99,,,0.00,Acu-Link.com,2013-08-10 13:12:00,
2013-08-10 08:28:00,83.3,82.7,29.83,SW,225,0.0,-999.0,98,-99.99,,,0.00,Acu-Link.com,2013-08-10 13:28:00,
2013-08-10 08:43:00,82.4,81.8,29.83,SE,135,1.1,-999.0,98,-99.99,,,0.00,Acu-Link.com,2013-08-10 13:43:00,
2013-08-10 08:58:00,82.9,82.3,29.84,NW,315,1.7,-999.0,98,-99.99,,,0.00,Acu-Link.com,2013-08-10 13:58:00,
2013-08-10 09:13:00,83.5,82.9,29.84,West,270,1.1,-999.0,98,-99.99,,,0.00,Acu-Link.com,2013-08-10 14:13:00,
2013-08-10 09:28:00,84.4,83.8,29.84,SE,135,4.2,-999.0,98,-99.99,,,0.00,Acu-Link.com,2013-08-10 14:28:00,
2013-08-10 09:43:00,86.0,85.4,29.83,South,180,0.0,-999.0,98,-99.99,,,0.00,Acu-Link.com,2013-08-10 14:43:00,
2013-08-10 09:58:00,86.5,85.9,29.84,SSW,202,0.0,-999.0,98,-99.99,,,0.00,Acu-Link.com,2013-08-10 14:58:00,
2013-08-10 10:13:00,84.6,84.0,29.83,NE,45,2.2,-999.0,98,-99.99,,,0.00,Acu-Link.com,2013-08-10 15:13:00,
2013-08-10 10:28:00,87.6,87.0,29.84,West,270,2.7,-999.0,98,-99.99,,,0.00,Acu-Link.com,2013-08-10 15:28:00,
2013-08-10 10:44:00,87.6,87.0,29.84,ESE,112,2.2,-999.0,98,-99.99,,,0.00,Acu-Link.com,2013-08-10 15:44:00,
2013-08-10 10:59:00,85.8,85.2,29.84,WNW,292,3.2,-999.0,98,-99.99,,,0.00,Acu-Link.com,2013-08-10 15:59:00,
2013-08-10 11:14:00,88.0,87.4,29.84,SE,135,1.7,-999.0,98,-99.99,,,0.00,Acu-Link.com,2013-08-10 16:14:00,
2013-08-10 11:29:00,88.3,87.7,29.84,SSE,157,3.7,-999.0,98,-99.99,,,0.00,Acu-Link.com,2013-08-10 16:29:00,
2013-08-10 11:44:00,92.3,91.6,29.83,West,270,1.1,-999.0,98,-99.99,,,0.00,Acu-Link.com,2013-08-10 16:44:00,
2013-08-10 11:59:00,90.0,89.4,29.82,NW,315,0.0,-999.0,98,-99.99,,,0.00,Acu-Link.com,2013-08-10 16:59:00,
2013-08-10 12:14:00,91.4,90.8,29.82,ESE,112,5.3,-999.0,98,-99.99,,,0.00,Acu-Link.com,2013-08-10 17:14:00,
2013-08-10 12:29:00,90.5,89.9,29.82,East,90,1.7,-999.0,98,-99.99,,,0.00,Acu-Link.com,2013-08-10 17:29:00,
2013-08-10 12:44:00,88.7,88.1,29.81,WNW,292,7.3,-999.0,98,-99.99,,,0.00,Acu-Link.com,2013-08-10 17:44:00,
2013-08-10 12:59:00,85.1,84.5,29.81,NNW,337,2.2,-999.0,98,-99.99,,,0.00,Acu-Link.com,2013-08-10 17:59:00,
2013-08-10 13:15:00,82.9,82.3,29.80,NW,315,1.7,-999.0,98,-99.99,,,0.00,Acu-Link.com,2013-08-10 18:15:00,
2013-08-10 13:30:00,85.8,85.2,29.81,North,0,5.3,-999.0,98,-99.99,,,0.00,Acu-Link.com,2013-08-10 18:30:00,
2013-08-10 13:45:00,87.8,87.2,29.80,NNE,22,6.3,-999.0,98,-99.99,,,0.00,Acu-Link.com,2013-08-10 18:45:00,
2013-08-10 14:00:00,89.6,89.0,29.79,NNW,337,2.2,-999.0,98,-99.99,,,0.00,Acu-Link.com,2013-08-10 19:00:00,
2013-08-10 14:15:00,89.4,88.8,29.79,WNW,292,1.1,-999.0,98,-99.99,,,0.00,Acu-Link.com,2013-08-10 19:15:00,
2013-08-10 14:30:00,91.2,90.6,29.78,SW,225,1.1,-999.0,98,-99.99,,,0.00,Acu-Link.com,2013-08-10 19:30:00,
2013-08-10 14:45:00,88.9,88.3,29.78,SW,225,3.7,-999.0,98,-99.99,,,0.00,Acu-Link.com,2013-08-10 19:45:00,
2013-08-10 15:00:00,88.0,87.4,29.78,West,270,3.7,-999.0,98,-99.99,,,0.00,Acu-Link.com,2013-08-10 20:00:00,
2013-08-10 15:15:00,88.7,88.1,29.78,NNW,337,3.7,-999.0,98,-99.99,,,0.00,Acu-Link.com,2013-08-10 20:15:00,
2013-08-10 15:31:00,88.0,87.4,29.78,WNW,292,2.2,-999.0,98,-99.99,,,0.00,Acu-Link.com,2013-08-10 20:31:00,
2013-08-10 15:46:00,89.2,88.6,29.78,North,0,5.8,-999.0,98,-99.99,,,0.00,Acu-Link.com,2013-08-10 20:46:00,
2013-08-10 16:01:00,86.5,85.9,29.78,West,270,5.8,-999.0,98,-99.99,,,0.00,Acu-Link.com,2013-08-10 21:01:00,
2013-08-10 16:16:00,84.6,84.0,29.79,NW,315,3.7,-999.0,98,-99.99,,,0.00,Acu-Link.com,2013-08-10 21:16:00,
2013-08-10 16:31:00,83.7,83.1,29.80,NE,45,3.2,-999.0,98,-99.99,,,0.00,Acu-Link.com,2013-08-10 21:31:00,
2013-08-10 16:46:00,82.6,82.0,29.79,West,270,3.2,-999.0,98,-99.99,,,0.00,Acu-Link.com,2013-08-10 21:46:00,
2013-08-10 17:01:00,81.7,81.1,29.78,ESE,112,0.0,-999.0,98,-99.99,,,0.00,Acu-Link.com,2013-08-10 22:01:00,
2013-08-10 17:16:00,81.9,81.3,29.78,NW,315,2.2,-999.0,98,-99.99,,,0.00,Acu-Link.com,2013-08-10 22:16:00,
2013-08-10 17:31:00,80.8,80.2,29.79,NW,315,1.7,-999.0,98,-99.99,,,0.00,Acu-Link.com,2013-08-10 22:31:00,
2013-08-10 17:47:00,80.1,79.5,29.78,WSW,247,1.7,-999.0,98,-99.99,,,0.00,Acu-Link.com,2013-08-10 22:47:00,
2013-08-10 18:02:00,79.9,79.3,29.78,SE,135,2.2,-999.0,98,-99.99,,,0.00,Acu-Link.com,2013-08-10 23:02:00,
2013-08-10 18:17:00,79.7,79.1,29.78,SSE,157,1.7,-999.0,98,-99.99,,,0.00,Acu-Link.com,2013-08-10 23:17:00,
2013-08-10 18:32:00,79.5,78.9,29.77,West,270,0.0,-999.0,98,-99.99,,,0.00,Acu-Link.com,2013-08-10 23:32:00,
2013-08-10 18:47:00,79.0,78.4,29.77,WNW,292,1.7,-999.0,98,-99.99,,,0.00,Acu-Link.com,2013-08-10 23:47:00,
2013-08-10 19:02:00,78.3,77.7,29.79,ESE,112,2.7,-999.0,98,-99.99,,,0.00,Acu-Link.com,2013-08-11 00:02:00,
2013-08-10 19:17:00,78.3,77.7,29.78,SSW,202,0.0,-999.0,98,-99.99,,,0.00,Acu-Link.com,2013-08-11 00:17:00,
2013-08-10 19:32:00,77.7,77.1,29.79,East,90,0.0,-999.0,98,-99.99,,,0.00,Acu-Link.com,2013-08-11 00:32:00,
2013-08-10 19:47:00,77.0,76.4,29.80,West,270,0.0,-999.0,98,-99.99,,,0.00,Acu-Link.com,2013-08-11 00:47:00,
2013-08-10 20:03:00,75.9,75.3,29.80,South,180,0.0,-999.0,98,-99.99,,,0.00,Acu-Link.com,2013-08-11 01:03:00,
2013-08-10 20:18:00,75.2,74.6,29.81,WNW,292,0.0,-999.0,98,-99.99,,,0.00,Acu-Link.com,2013-08-11 01:18:00,
2013-08-10 20:33:00,74.7,74.1,29.81,WNW,292,0.0,-999.0,98,-99.99,,,0.00,Acu-Link.com,2013-08-11 01:33:00,
2013-08-10 20:48:00,74.1,73.5,29.82,WNW,292,0.0,-999.0,98,-99.99,,,0.00,Acu-Link.com,2013-08-11 01:48:00,
2013-08-10 21:03:00,73.9,73.3,29.83,SSE,157,0.0,-999.0,98,-99.99,,,0.00,Acu-Link.com,2013-08-11 02:03:00,
2013-08-10 21:18:00,73.6,73.0,29.82,South,180,0.0,-999.0,98,-99.99,,,0.00,Acu-Link.com,2013-08-11 02:18:00,
2013-08-10 21:33:00,73.6,73.0,29.82,NNE,22,0.0,-999.0,98,-99.99,,,0.00,Acu-Link.com,2013-08-11 02:33:00,
2013-08-10 22:03:00,73.0,72.4,29.82,SW,225,0.0,-999.0,98,-99.99,,,0.00,Acu-Link.com,2013-08-11 03:03:00,
2013-08-10 22:19:00,72.7,72.1,29.82,SSE,157,2.7,-999.0,98,-99.99,,,0.00,Acu-Link.com,2013-08-11 03:19:00,
2013-08-10 23:04:00,72.1,71.5,29.81,SSW,202,0.0,-999.0,98,-99.99,,,0.00,Acu-Link.com,2013-08-11 04:04:00,
2013-08-10 23:19:00,72.3,71.7,29.82,SSE,157,0.0,-999.0,98,-99.99,,,0.00,Acu-Link.com,2013-08-11 04:19:00,
2013-08-10 23:34:00,72.3,71.7,29.81,WSW,247,0.0,-999.0,98,-99.99,,,0.00,Acu-Link.com,2013-08-11 04:34:00,
2013-08-10 23:49:00,72.3,71.7,29.82,NW,315,0.0,-999.0,98,-99.99,,,0.00,Acu-Link.com,2013-08-11 04:49:00,